sensor_id;sensor_type;location;lat;lon;timestamp;temperature;humidity
59847;DHT22;45728;48.788;2.302;2022-07-06T00:01:49;17.60;97.40
59847;DHT22;45728;48.788;2.302;2022-07-06T00:04:17;17.60;97.40
59847;DHT22;45728;48.788;2.302;2022-07-06T00:06:44;17.60;97.70
59847;DHT22;45728;48.788;2.302;2022-07-06T00:09:10;17.60;97.90
59847;DHT22;45728;48.788;2.302;2022-07-06T00:11:36;17.50;97.90
59847;DHT22;45728;48.788;2.302;2022-07-06T00:14:03;17.50;98.10
59847;DHT22;45728;48.788;2.302;2022-07-06T00:16:29;17.50;98.30
59847;DHT22;45728;48.788;2.302;2022-07-06T00:18:55;17.40;98.40
59847;DHT22;45728;48.788;2.302;2022-07-06T00:21:21;17.40;98.50
59847;DHT22;45728;48.788;2.302;2022-07-06T00:23:47;17.40;98.50
59847;DHT22;45728;48.788;2.302;2022-07-06T00:26:13;17.40;98.70
59847;DHT22;45728;48.788;2.302;2022-07-06T00:28:40;17.30;98.80
59847;DHT22;45728;48.788;2.302;2022-07-06T00:31:06;17.30;99.00
59847;DHT22;45728;48.788;2.302;2022-07-06T00:33:32;17.30;99.10
59847;DHT22;45728;48.788;2.302;2022-07-06T00:35:58;17.30;99.20
59847;DHT22;45728;48.788;2.302;2022-07-06T00:38:24;17.30;99.20
59847;DHT22;45728;48.788;2.302;2022-07-06T00:40:50;17.30;99.40
59847;DHT22;45728;48.788;2.302;2022-07-06T00:43:16;17.20;99.50
59847;DHT22;45728;48.788;2.302;2022-07-06T00:45:42;17.20;99.60
59847;DHT22;45728;48.788;2.302;2022-07-06T00:48:09;17.30;99.60
59847;DHT22;45728;48.788;2.302;2022-07-06T00:50:36;17.30;99.70
59847;DHT22;45728;48.788;2.302;2022-07-06T00:53:06;17.20;99.80
59847;DHT22;45728;48.788;2.302;2022-07-06T00:55:36;17.20;99.90
59847;DHT22;45728;48.788;2.302;2022-07-06T00:58:03;17.20;99.90
59847;DHT22;45728;48.788;2.302;2022-07-06T01:00:30;17.20;99.90
59847;DHT22;45728;48.788;2.302;2022-07-06T01:02:56;17.10;99.90
59847;DHT22;45728;48.788;2.302;2022-07-06T01:05:23;17.10;99.90
59847;DHT22;45728;48.788;2.302;2022-07-06T01:07:51;17.10;99.90
59847;DHT22;45728;48.788;2.302;2022-07-06T01:10:19;17.00;99.90
59847;DHT22;45728;48.788;2.302;2022-07-06T01:12:47;17.00;99.90
59847;DHT22;45728;48.788;2.302;2022-07-06T01:15:18;17.00;99.90
59847;DHT22;45728;48.788;2.302;2022-07-06T01:17:45;17.10;99.90
59847;DHT22;45728;48.788;2.302;2022-07-06T01:20:14;17.00;99.90
59847;DHT22;45728;48.788;2.302;2022-07-06T01:22:41;17.00;99.90
59847;DHT22;45728;48.788;2.302;2022-07-06T01:25:08;17.10;99.90
59847;DHT22;45728;48.788;2.302;2022-07-06T01:27:35;17.00;99.90
59847;DHT22;45728;48.788;2.302;2022-07-06T01:30:10;16.90;99.90
59847;DHT22;45728;48.788;2.302;2022-07-06T01:32:36;17.00;99.90
59847;DHT22;45728;48.788;2.302;2022-07-06T01:35:05;16.90;99.90
59847;DHT22;45728;48.788;2.302;2022-07-06T01:37:32;17.00;99.90
59847;DHT22;45728;48.788;2.302;2022-07-06T01:39:59;16.90;99.90
59847;DHT22;45728;48.788;2.302;2022-07-06T01:42:26;16.90;99.90
59847;DHT22;45728;48.788;2.302;2022-07-06T01:44:53;16.90;99.90
59847;DHT22;45728;48.788;2.302;2022-07-06T01:47:19;16.90;99.90
59847;DHT22;45728;48.788;2.302;2022-07-06T01:49:45;17.00;99.90
59847;DHT22;45728;48.788;2.302;2022-07-06T01:52:11;17.00;99.90
59847;DHT22;45728;48.788;2.302;2022-07-06T01:54:38;17.00;99.90
59847;DHT22;45728;48.788;2.302;2022-07-06T01:57:04;17.00;99.90
59847;DHT22;45728;48.788;2.302;2022-07-06T01:59:30;16.90;99.90
59847;DHT22;45728;48.788;2.302;2022-07-06T02:01:56;16.80;99.90
59847;DHT22;45728;48.788;2.302;2022-07-06T02:04:22;16.70;99.90
59847;DHT22;45728;48.788;2.302;2022-07-06T02:06:48;16.80;99.90
59847;DHT22;45728;48.788;2.302;2022-07-06T02:09:14;16.70;99.90
59847;DHT22;45728;48.788;2.302;2022-07-06T02:11:42;16.70;99.90
59847;DHT22;45728;48.788;2.302;2022-07-06T02:14:09;16.70;99.90
59847;DHT22;45728;48.788;2.302;2022-07-06T02:16:35;16.50;99.90
59847;DHT22;45728;48.788;2.302;2022-07-06T02:19:01;16.50;99.90
59847;DHT22;45728;48.788;2.302;2022-07-06T02:21:27;16.50;99.90
59847;DHT22;45728;48.788;2.302;2022-07-06T02:23:54;16.60;99.90
59847;DHT22;45728;48.788;2.302;2022-07-06T02:26:20;16.50;99.90
59847;DHT22;45728;48.788;2.302;2022-07-06T02:28:46;16.50;99.90
59847;DHT22;45728;48.788;2.302;2022-07-06T02:31:14;16.40;99.90
59847;DHT22;45728;48.788;2.302;2022-07-06T02:33:41;16.50;99.90
59847;DHT22;45728;48.788;2.302;2022-07-06T02:36:07;16.50;99.90
59847;DHT22;45728;48.788;2.302;2022-07-06T02:38:33;16.40;99.90
59847;DHT22;45728;48.788;2.302;2022-07-06T02:40:59;16.40;99.90
59847;DHT22;45728;48.788;2.302;2022-07-06T02:43:26;16.30;99.90
59847;DHT22;45728;48.788;2.302;2022-07-06T02:45:52;16.20;99.90
59847;DHT22;45728;48.788;2.302;2022-07-06T02:48:18;16.20;99.90
59847;DHT22;45728;48.788;2.302;2022-07-06T02:50:47;16.30;99.90
59847;DHT22;45728;48.788;2.302;2022-07-06T02:53:13;16.30;99.90
59847;DHT22;45728;48.788;2.302;2022-07-06T02:55:39;16.30;99.90
59847;DHT22;45728;48.788;2.302;2022-07-06T02:58:05;16.30;99.90
59847;DHT22;45728;48.788;2.302;2022-07-06T03:00:31;16.20;99.90
59847;DHT22;45728;48.788;2.302;2022-07-06T03:02:57;16.10;99.90
59847;DHT22;45728;48.788;2.302;2022-07-06T03:05:23;16.10;99.90
59847;DHT22;45728;48.788;2.302;2022-07-06T03:07:50;16.10;99.90
59847;DHT22;45728;48.788;2.302;2022-07-06T03:10:16;16.10;99.90
59847;DHT22;45728;48.788;2.302;2022-07-06T03:12:42;16.10;99.90
59847;DHT22;45728;48.788;2.302;2022-07-06T03:15:08;16.20;99.90
59847;DHT22;45728;48.788;2.302;2022-07-06T03:17:38;16.20;99.90
59847;DHT22;45728;48.788;2.302;2022-07-06T03:20:05;16.20;99.90
59847;DHT22;45728;48.788;2.302;2022-07-06T03:22:32;16.20;99.90
59847;DHT22;45728;48.788;2.302;2022-07-06T03:24:58;16.10;99.90
59847;DHT22;45728;48.788;2.302;2022-07-06T03:27:24;16.10;99.90
59847;DHT22;45728;48.788;2.302;2022-07-06T03:29:50;16.10;99.90
59847;DHT22;45728;48.788;2.302;2022-07-06T03:32:16;16.00;99.90
59847;DHT22;45728;48.788;2.302;2022-07-06T03:34:42;16.10;99.90
59847;DHT22;45728;48.788;2.302;2022-07-06T03:37:08;16.10;99.90
59847;DHT22;45728;48.788;2.302;2022-07-06T03:39:34;16.00;99.90
59847;DHT22;45728;48.788;2.302;2022-07-06T03:42:00;16.00;99.90
59847;DHT22;45728;48.788;2.302;2022-07-06T03:44:26;15.90;99.90
59847;DHT22;45728;48.788;2.302;2022-07-06T03:46:52;15.80;99.90
59847;DHT22;45728;48.788;2.302;2022-07-06T03:49:21;15.70;99.90
59847;DHT22;45728;48.788;2.302;2022-07-06T03:51:47;15.60;99.90
59847;DHT22;45728;48.788;2.302;2022-07-06T03:54:14;15.60;99.90
59847;DHT22;45728;48.788;2.302;2022-07-06T03:56:40;15.50;99.90
59847;DHT22;45728;48.788;2.302;2022-07-06T03:59:06;15.50;99.90
59847;DHT22;45728;48.788;2.302;2022-07-06T04:01:32;15.50;99.90
59847;DHT22;45728;48.788;2.302;2022-07-06T04:03:58;15.50;99.90
59847;DHT22;45728;48.788;2.302;2022-07-06T04:06:24;15.40;99.90
59847;DHT22;45728;48.788;2.302;2022-07-06T04:08:50;15.40;99.90
59847;DHT22;45728;48.788;2.302;2022-07-06T04:11:16;15.40;99.90
59847;DHT22;45728;48.788;2.302;2022-07-06T04:13:43;15.40;99.90
59847;DHT22;45728;48.788;2.302;2022-07-06T04:16:09;15.30;99.90
59847;DHT22;45728;48.788;2.302;2022-07-06T04:18:35;15.30;99.90
59847;DHT22;45728;48.788;2.302;2022-07-06T04:21:01;15.30;99.90
59847;DHT22;45728;48.788;2.302;2022-07-06T04:23:28;15.30;99.90
59847;DHT22;45728;48.788;2.302;2022-07-06T04:25:54;15.30;99.90
59847;DHT22;45728;48.788;2.302;2022-07-06T04:28:20;15.20;99.90
59847;DHT22;45728;48.788;2.302;2022-07-06T04:30:46;15.30;99.90
59847;DHT22;45728;48.788;2.302;2022-07-06T04:33:12;15.30;99.90
59847;DHT22;45728;48.788;2.302;2022-07-06T04:35:38;15.30;99.90
59847;DHT22;45728;48.788;2.302;2022-07-06T04:38:04;15.30;99.90
59847;DHT22;45728;48.788;2.302;2022-07-06T04:40:31;15.30;99.90
59847;DHT22;45728;48.788;2.302;2022-07-06T04:42:57;15.30;99.90
59847;DHT22;45728;48.788;2.302;2022-07-06T04:45:23;15.40;99.90
59847;DHT22;45728;48.788;2.302;2022-07-06T04:47:49;15.40;99.90
59847;DHT22;45728;48.788;2.302;2022-07-06T04:50:15;15.50;99.90
59847;DHT22;45728;48.788;2.302;2022-07-06T04:52:41;15.50;99.90
59847;DHT22;45728;48.788;2.302;2022-07-06T04:55:07;15.60;99.90
59847;DHT22;45728;48.788;2.302;2022-07-06T04:57:34;15.60;99.90
59847;DHT22;45728;48.788;2.302;2022-07-06T05:00:01;15.60;99.90
59847;DHT22;45728;48.788;2.302;2022-07-06T05:02:27;15.50;99.90
59847;DHT22;45728;48.788;2.302;2022-07-06T05:04:53;15.50;99.90
59847;DHT22;45728;48.788;2.302;2022-07-06T05:07:20;15.50;99.90
59847;DHT22;45728;48.788;2.302;2022-07-06T05:09:46;15.50;99.90
59847;DHT22;45728;48.788;2.302;2022-07-06T05:12:12;15.40;99.90
59847;DHT22;45728;48.788;2.302;2022-07-06T05:14:38;15.50;99.90
59847;DHT22;45728;48.788;2.302;2022-07-06T05:17:04;15.50;99.90
59847;DHT22;45728;48.788;2.302;2022-07-06T05:19:30;15.50;99.90
59847;DHT22;45728;48.788;2.302;2022-07-06T05:21:56;15.50;99.90
59847;DHT22;45728;48.788;2.302;2022-07-06T05:24:22;15.50;99.90
59847;DHT22;45728;48.788;2.302;2022-07-06T05:26:48;15.50;99.90
59847;DHT22;45728;48.788;2.302;2022-07-06T05:29:14;15.60;99.90
59847;DHT22;45728;48.788;2.302;2022-07-06T05:31:40;15.50;99.90
59847;DHT22;45728;48.788;2.302;2022-07-06T05:34:06;15.60;99.90
59847;DHT22;45728;48.788;2.302;2022-07-06T05:36:32;15.60;99.90
59847;DHT22;45728;48.788;2.302;2022-07-06T05:38:58;15.60;99.90
59847;DHT22;45728;48.788;2.302;2022-07-06T05:41:25;15.50;99.90
59847;DHT22;45728;48.788;2.302;2022-07-06T05:43:51;15.60;99.90
59847;DHT22;45728;48.788;2.302;2022-07-06T05:46:17;15.70;99.90
59847;DHT22;45728;48.788;2.302;2022-07-06T05:48:43;15.70;99.90
59847;DHT22;45728;48.788;2.302;2022-07-06T05:51:27;15.70;99.90
59847;DHT22;45728;48.788;2.302;2022-07-06T05:53:54;15.80;99.90
59847;DHT22;45728;48.788;2.302;2022-07-06T05:56:20;16.30;99.90
59847;DHT22;45728;48.788;2.302;2022-07-06T05:58:46;16.70;99.90
59847;DHT22;45728;48.788;2.302;2022-07-06T06:01:12;17.20;99.90
59847;DHT22;45728;48.788;2.302;2022-07-06T06:03:38;17.40;99.90
59847;DHT22;45728;48.788;2.302;2022-07-06T06:06:04;17.70;99.90
59847;DHT22;45728;48.788;2.302;2022-07-06T06:08:30;18.10;99.90
59847;DHT22;45728;48.788;2.302;2022-07-06T06:10:56;18.70;99.90
59847;DHT22;45728;48.788;2.302;2022-07-06T06:13:22;19.50;99.90
59847;DHT22;45728;48.788;2.302;2022-07-06T06:15:48;20.10;99.90
59847;DHT22;45728;48.788;2.302;2022-07-06T06:18:14;20.50;99.90
59847;DHT22;45728;48.788;2.302;2022-07-06T06:20:43;20.30;99.90
59847;DHT22;45728;48.788;2.302;2022-07-06T06:23:09;20.40;99.90
59847;DHT22;45728;48.788;2.302;2022-07-06T06:25:37;20.60;99.90
59847;DHT22;45728;48.788;2.302;2022-07-06T06:28:05;21.10;99.70
59847;DHT22;45728;48.788;2.302;2022-07-06T06:30:32;21.20;99.90
59847;DHT22;45728;48.788;2.302;2022-07-06T06:33:14;22.20;99.20
59847;DHT22;45728;48.788;2.302;2022-07-06T06:35:51;21.60;98.40
59847;DHT22;45728;48.788;2.302;2022-07-06T06:38:19;21.90;97.80
59847;DHT22;45728;48.788;2.302;2022-07-06T06:40:46;21.80;98.60
59847;DHT22;45728;48.788;2.302;2022-07-06T06:43:12;21.60;98.90
59847;DHT22;45728;48.788;2.302;2022-07-06T06:45:38;22.70;97.40
59847;DHT22;45728;48.788;2.302;2022-07-06T06:48:05;23.70;97.00
59847;DHT22;45728;48.788;2.302;2022-07-06T06:50:31;23.60;95.60
59847;DHT22;45728;48.788;2.302;2022-07-06T06:52:57;22.70;96.00
59847;DHT22;45728;48.788;2.302;2022-07-06T06:55:23;21.80;96.70
59847;DHT22;45728;48.788;2.302;2022-07-06T06:57:49;21.60;97.40
59847;DHT22;45728;48.788;2.302;2022-07-06T07:00:16;22.40;96.60
59847;DHT22;45728;48.788;2.302;2022-07-06T07:02:42;22.40;97.00
59847;DHT22;45728;48.788;2.302;2022-07-06T07:05:08;22.00;96.50
59847;DHT22;45728;48.788;2.302;2022-07-06T07:07:34;22.10;96.50
59847;DHT22;45728;48.788;2.302;2022-07-06T07:10:00;21.50;97.00
59847;DHT22;45728;48.788;2.302;2022-07-06T07:12:26;21.30;97.30
59847;DHT22;45728;48.788;2.302;2022-07-06T07:14:52;21.20;97.30
59847;DHT22;45728;48.788;2.302;2022-07-06T07:17:20;21.20;96.90
59847;DHT22;45728;48.788;2.302;2022-07-06T07:19:46;21.00;97.00
59847;DHT22;45728;48.788;2.302;2022-07-06T07:22:12;20.70;97.20
59847;DHT22;45728;48.788;2.302;2022-07-06T07:24:38;20.50;97.40
59847;DHT22;45728;48.788;2.302;2022-07-06T07:27:04;20.30;97.80
59847;DHT22;45728;48.788;2.302;2022-07-06T07:29:31;20.80;97.70
59847;DHT22;45728;48.788;2.302;2022-07-06T07:31:57;21.00;97.30
59847;DHT22;45728;48.788;2.302;2022-07-06T07:34:23;21.40;96.70
59847;DHT22;45728;48.788;2.302;2022-07-06T07:36:49;21.30;96.60
59847;DHT22;45728;48.788;2.302;2022-07-06T07:39:15;20.90;96.90
59847;DHT22;45728;48.788;2.302;2022-07-06T07:41:41;20.30;97.00
59847;DHT22;45728;48.788;2.302;2022-07-06T07:44:08;20.30;97.40
59847;DHT22;45728;48.788;2.302;2022-07-06T07:46:34;20.60;97.60
59847;DHT22;45728;48.788;2.302;2022-07-06T07:49:00;20.80;97.30
59847;DHT22;45728;48.788;2.302;2022-07-06T07:51:26;20.60;96.10
59847;DHT22;45728;48.788;2.302;2022-07-06T07:53:52;20.50;96.40
59847;DHT22;45728;48.788;2.302;2022-07-06T07:56:18;20.40;96.60
59847;DHT22;45728;48.788;2.302;2022-07-06T07:58:44;20.20;96.80
59847;DHT22;45728;48.788;2.302;2022-07-06T08:01:10;20.20;97.00
59847;DHT22;45728;48.788;2.302;2022-07-06T08:03:36;20.20;97.10
59847;DHT22;45728;48.788;2.302;2022-07-06T08:06:02;20.30;97.20
59847;DHT22;45728;48.788;2.302;2022-07-06T08:08:28;20.70;96.40
59847;DHT22;45728;48.788;2.302;2022-07-06T08:10:54;20.80;96.10
59847;DHT22;45728;48.788;2.302;2022-07-06T08:13:20;20.70;96.40
59847;DHT22;45728;48.788;2.302;2022-07-06T08:15:47;20.60;96.50
59847;DHT22;45728;48.788;2.302;2022-07-06T08:18:13;20.50;96.30
59847;DHT22;45728;48.788;2.302;2022-07-06T08:20:39;20.40;96.60
59847;DHT22;45728;48.788;2.302;2022-07-06T08:23:05;20.30;96.80
59847;DHT22;45728;48.788;2.302;2022-07-06T08:25:31;20.50;96.90
59847;DHT22;45728;48.788;2.302;2022-07-06T08:27:57;20.70;96.60
59847;DHT22;45728;48.788;2.302;2022-07-06T08:30:24;20.80;96.30
59847;DHT22;45728;48.788;2.302;2022-07-06T08:32:50;20.80;96.30
59847;DHT22;45728;48.788;2.302;2022-07-06T08:35:16;20.70;96.10
59847;DHT22;45728;48.788;2.302;2022-07-06T08:37:42;20.70;96.00
59847;DHT22;45728;48.788;2.302;2022-07-06T08:40:09;20.70;96.00
59847;DHT22;45728;48.788;2.302;2022-07-06T08:42:36;20.90;95.80
59847;DHT22;45728;48.788;2.302;2022-07-06T08:45:04;20.90;95.70
59847;DHT22;45728;48.788;2.302;2022-07-06T08:47:31;21.00;95.70
59847;DHT22;45728;48.788;2.302;2022-07-06T08:49:57;21.00;95.60
59847;DHT22;45728;48.788;2.302;2022-07-06T08:52:24;21.00;95.70
59847;DHT22;45728;48.788;2.302;2022-07-06T08:54:50;21.10;96.30
59847;DHT22;45728;48.788;2.302;2022-07-06T08:57:17;21.30;95.90
59847;DHT22;45728;48.788;2.302;2022-07-06T08:59:44;21.40;95.20
59847;DHT22;45728;48.788;2.302;2022-07-06T09:02:11;21.20;95.20
59847;DHT22;45728;48.788;2.302;2022-07-06T09:04:37;21.00;95.40
59847;DHT22;45728;48.788;2.302;2022-07-06T09:07:04;21.10;95.50
59847;DHT22;45728;48.788;2.302;2022-07-06T09:09:30;21.10;95.40
59847;DHT22;45728;48.788;2.302;2022-07-06T09:11:57;21.20;95.30
59847;DHT22;45728;48.788;2.302;2022-07-06T09:14:23;21.30;94.50
59847;DHT22;45728;48.788;2.302;2022-07-06T09:17:09;21.40;94.50
59847;DHT22;45728;48.788;2.302;2022-07-06T09:19:35;21.30;94.80
59847;DHT22;45728;48.788;2.302;2022-07-06T09:22:02;21.80;94.90
59847;DHT22;45728;48.788;2.302;2022-07-06T09:24:28;21.90;94.50
59847;DHT22;45728;48.788;2.302;2022-07-06T09:26:55;22.00;94.00
59847;DHT22;45728;48.788;2.302;2022-07-06T09:29:29;21.80;93.90
59847;DHT22;45728;48.788;2.302;2022-07-06T09:31:59;22.00;93.20
59847;DHT22;45728;48.788;2.302;2022-07-06T09:34:41;22.10;93.70
59847;DHT22;45728;48.788;2.302;2022-07-06T09:37:08;22.20;93.00
59847;DHT22;45728;48.788;2.302;2022-07-06T09:39:34;22.10;93.30
59847;DHT22;45728;48.788;2.302;2022-07-06T09:42:02;22.40;93.40
59847;DHT22;45728;48.788;2.302;2022-07-06T09:44:31;22.70;92.90
59847;DHT22;45728;48.788;2.302;2022-07-06T09:47:00;22.30;93.40
59847;DHT22;45728;48.788;2.302;2022-07-06T09:49:27;22.50;92.80
59847;DHT22;45728;48.788;2.302;2022-07-06T09:51:56;22.40;92.30
59847;DHT22;45728;48.788;2.302;2022-07-06T09:54:23;22.20;92.40
59847;DHT22;45728;48.788;2.302;2022-07-06T09:56:50;22.50;92.70
59847;DHT22;45728;48.788;2.302;2022-07-06T09:59:19;23.10;92.60
59847;DHT22;45728;48.788;2.302;2022-07-06T10:01:48;23.10;91.70
59847;DHT22;45728;48.788;2.302;2022-07-06T10:04:16;22.70;92.00
59847;DHT22;45728;48.788;2.302;2022-07-06T10:06:44;22.50;92.20
59847;DHT22;45728;48.788;2.302;2022-07-06T10:09:13;22.50;92.10
59847;DHT22;45728;48.788;2.302;2022-07-06T10:11:42;22.80;92.10
59847;DHT22;45728;48.788;2.302;2022-07-06T10:14:10;23.00;91.70
59847;DHT22;45728;48.788;2.302;2022-07-06T10:16:38;23.40;91.30
59847;DHT22;45728;48.788;2.302;2022-07-06T10:19:06;23.10;91.40
59847;DHT22;45728;48.788;2.302;2022-07-06T10:21:35;23.50;91.20
59847;DHT22;45728;48.788;2.302;2022-07-06T10:24:03;23.60;91.40
59847;DHT22;45728;48.788;2.302;2022-07-06T10:26:29;24.00;91.10
59847;DHT22;45728;48.788;2.302;2022-07-06T10:28:58;24.20;90.70
59847;DHT22;45728;48.788;2.302;2022-07-06T10:31:24;24.20;90.60
59847;DHT22;45728;48.788;2.302;2022-07-06T10:33:51;24.20;90.60
59847;DHT22;45728;48.788;2.302;2022-07-06T10:36:18;24.30;90.70
59847;DHT22;45728;48.788;2.302;2022-07-06T10:38:49;24.80;90.70
59847;DHT22;45728;48.788;2.302;2022-07-06T10:41:16;24.90;90.30
59847;DHT22;45728;48.788;2.302;2022-07-06T10:43:43;25.10;89.80
59847;DHT22;45728;48.788;2.302;2022-07-06T10:46:12;25.40;89.10
59847;DHT22;45728;48.788;2.302;2022-07-06T10:48:41;25.30;87.70
59847;DHT22;45728;48.788;2.302;2022-07-06T10:51:08;24.70;87.90
59847;DHT22;45728;48.788;2.302;2022-07-06T10:53:37;24.30;89.50
59847;DHT22;45728;48.788;2.302;2022-07-06T10:56:09;24.10;88.90
59847;DHT22;45728;48.788;2.302;2022-07-06T11:01:09;24.20;90.00
59847;DHT22;45728;48.788;2.302;2022-07-06T11:06:24;24.40;90.00
59847;DHT22;45728;48.788;2.302;2022-07-06T11:09:00;24.40;89.20
59847;DHT22;45728;48.788;2.302;2022-07-06T11:11:39;24.40;89.60
59847;DHT22;45728;48.788;2.302;2022-07-06T11:14:11;24.00;90.30
59847;DHT22;45728;48.788;2.302;2022-07-06T11:17:00;24.20;90.70
59847;DHT22;45728;48.788;2.302;2022-07-06T11:19:27;24.80;90.20
59847;DHT22;45728;48.788;2.302;2022-07-06T11:22:09;25.40;89.90
59847;DHT22;45728;48.788;2.302;2022-07-06T11:24:40;25.50;88.40
59847;DHT22;45728;48.788;2.302;2022-07-06T11:27:07;25.70;88.60
59847;DHT22;45728;48.788;2.302;2022-07-06T11:30:10;26.20;88.50
59847;DHT22;45728;48.788;2.302;2022-07-06T11:32:38;25.70;87.00
59847;DHT22;45728;48.788;2.302;2022-07-06T11:35:04;24.90;88.00
59847;DHT22;45728;48.788;2.302;2022-07-06T11:37:30;25.20;88.40
59847;DHT22;45728;48.788;2.302;2022-07-06T11:39:56;24.90;88.30
59847;DHT22;45728;48.788;2.302;2022-07-06T11:42:22;24.70;88.30
59847;DHT22;45728;48.788;2.302;2022-07-06T11:44:49;24.80;89.50
59847;DHT22;45728;48.788;2.302;2022-07-06T11:47:16;24.30;89.30
59847;DHT22;45728;48.788;2.302;2022-07-06T11:49:42;24.30;89.60
59847;DHT22;45728;48.788;2.302;2022-07-06T11:52:11;24.80;88.80
59847;DHT22;45728;48.788;2.302;2022-07-06T11:54:38;24.90;89.50
59847;DHT22;45728;48.788;2.302;2022-07-06T11:57:07;24.90;89.50
59847;DHT22;45728;48.788;2.302;2022-07-06T11:59:36;24.90;89.30
59847;DHT22;45728;48.788;2.302;2022-07-06T12:02:06;25.50;88.40
59847;DHT22;45728;48.788;2.302;2022-07-06T12:04:37;25.90;88.80
59847;DHT22;45728;48.788;2.302;2022-07-06T12:07:09;25.50;87.80
59847;DHT22;45728;48.788;2.302;2022-07-06T12:09:38;25.30;88.00
59847;DHT22;45728;48.788;2.302;2022-07-06T12:12:06;25.60;86.70
59847;DHT22;45728;48.788;2.302;2022-07-06T12:14:34;25.50;87.30
59847;DHT22;45728;48.788;2.302;2022-07-06T12:17:08;25.80;86.90
59847;DHT22;45728;48.788;2.302;2022-07-06T12:19:36;25.80;86.60
59847;DHT22;45728;48.788;2.302;2022-07-06T12:22:04;25.90;85.40
59847;DHT22;45728;48.788;2.302;2022-07-06T12:24:32;25.60;85.80
59847;DHT22;45728;48.788;2.302;2022-07-06T12:29:37;25.60;85.60
59847;DHT22;45728;48.788;2.302;2022-07-06T12:32:04;25.80;85.30
59847;DHT22;45728;48.788;2.302;2022-07-06T12:34:31;26.10;85.10
59847;DHT22;45728;48.788;2.302;2022-07-06T12:37:07;26.00;84.40
59847;DHT22;45728;48.788;2.302;2022-07-06T12:39:45;25.70;85.60
59847;DHT22;45728;48.788;2.302;2022-07-06T12:42:14;26.00;85.40
59847;DHT22;45728;48.788;2.302;2022-07-06T12:44:41;25.80;85.50
59847;DHT22;45728;48.788;2.302;2022-07-06T12:47:09;25.80;85.40
59847;DHT22;45728;48.788;2.302;2022-07-06T12:49:37;25.80;85.40
59847;DHT22;45728;48.788;2.302;2022-07-06T12:54:33;25.90;85.10
59847;DHT22;45728;48.788;2.302;2022-07-06T12:59:37;26.20;84.30
59847;DHT22;45728;48.788;2.302;2022-07-06T13:02:05;26.20;84.10
59847;DHT22;45728;48.788;2.302;2022-07-06T13:04:32;26.60;84.30
59847;DHT22;45728;48.788;2.302;2022-07-06T13:07:00;27.00;83.70
59847;DHT22;45728;48.788;2.302;2022-07-06T13:09:27;27.30;83.50
59847;DHT22;45728;48.788;2.302;2022-07-06T13:11:54;26.80;82.70
59847;DHT22;45728;48.788;2.302;2022-07-06T13:14:20;26.80;83.30
59847;DHT22;45728;48.788;2.302;2022-07-06T13:16:47;26.60;82.60
59847;DHT22;45728;48.788;2.302;2022-07-06T13:19:14;26.90;83.30
59847;DHT22;45728;48.788;2.302;2022-07-06T13:21:40;26.70;82.80
59847;DHT22;45728;48.788;2.302;2022-07-06T13:24:07;26.90;82.70
59847;DHT22;45728;48.788;2.302;2022-07-06T13:26:33;27.40;81.80
59847;DHT22;45728;48.788;2.302;2022-07-06T13:29:01;26.70;82.20
59847;DHT22;45728;48.788;2.302;2022-07-06T13:31:27;26.50;83.40
59847;DHT22;45728;48.788;2.302;2022-07-06T13:33:54;26.40;82.60
59847;DHT22;45728;48.788;2.302;2022-07-06T13:36:21;26.20;83.00
59847;DHT22;45728;48.788;2.302;2022-07-06T13:38:47;26.40;82.10
59847;DHT22;45728;48.788;2.302;2022-07-06T13:41:13;26.20;82.90
59847;DHT22;45728;48.788;2.302;2022-07-06T13:43:39;26.10;84.10
59847;DHT22;45728;48.788;2.302;2022-07-06T13:46:06;26.30;82.90
59847;DHT22;45728;48.788;2.302;2022-07-06T13:48:34;25.90;83.80
59847;DHT22;45728;48.788;2.302;2022-07-06T13:51:00;26.40;82.70
59847;DHT22;45728;48.788;2.302;2022-07-06T13:53:27;26.20;82.80
59847;DHT22;45728;48.788;2.302;2022-07-06T13:55:53;26.20;83.00
59847;DHT22;45728;48.788;2.302;2022-07-06T13:58:19;25.90;83.40
59847;DHT22;45728;48.788;2.302;2022-07-06T14:00:46;25.60;84.10
59847;DHT22;45728;48.788;2.302;2022-07-06T14:03:12;25.90;83.70
59847;DHT22;45728;48.788;2.302;2022-07-06T14:05:38;26.00;83.30
59847;DHT22;45728;48.788;2.302;2022-07-06T14:08:04;26.10;83.40
59847;DHT22;45728;48.788;2.302;2022-07-06T14:10:30;26.00;82.10
59847;DHT22;45728;48.788;2.302;2022-07-06T14:12:57;26.20;82.30
59847;DHT22;45728;48.788;2.302;2022-07-06T14:18:27;26.20;82.40
59847;DHT22;45728;48.788;2.302;2022-07-06T14:20:53;26.30;82.20
59847;DHT22;45728;48.788;2.302;2022-07-06T14:23:21;26.10;81.70
59847;DHT22;45728;48.788;2.302;2022-07-06T14:25:47;26.10;82.00
59847;DHT22;45728;48.788;2.302;2022-07-06T14:28:14;26.00;82.20
59847;DHT22;45728;48.788;2.302;2022-07-06T14:30:41;26.20;81.90
59847;DHT22;45728;48.788;2.302;2022-07-06T14:33:09;26.30;81.70
59847;DHT22;45728;48.788;2.302;2022-07-06T14:35:40;26.60;80.60
59847;DHT22;45728;48.788;2.302;2022-07-06T14:38:07;26.60;81.50
59847;DHT22;45728;48.788;2.302;2022-07-06T14:40:34;26.70;80.20
59847;DHT22;45728;48.788;2.302;2022-07-06T14:43:00;26.70;80.80
59847;DHT22;45728;48.788;2.302;2022-07-06T14:45:26;26.70;80.90
59847;DHT22;45728;48.788;2.302;2022-07-06T14:47:53;26.70;81.00
59847;DHT22;45728;48.788;2.302;2022-07-06T14:50:19;26.40;79.30
59847;DHT22;45728;48.788;2.302;2022-07-06T14:52:45;26.20;80.00
59847;DHT22;45728;48.788;2.302;2022-07-06T14:55:12;26.30;80.20
59847;DHT22;45728;48.788;2.302;2022-07-06T14:57:38;26.30;80.60
59847;DHT22;45728;48.788;2.302;2022-07-06T15:00:05;26.40;80.00
59847;DHT22;45728;48.788;2.302;2022-07-06T15:02:31;26.40;79.60
59847;DHT22;45728;48.788;2.302;2022-07-06T15:04:57;26.70;79.80
59847;DHT22;45728;48.788;2.302;2022-07-06T15:07:23;26.70;79.80
59847;DHT22;45728;48.788;2.302;2022-07-06T15:09:49;26.70;79.70
59847;DHT22;45728;48.788;2.302;2022-07-06T15:12:16;26.40;80.00
59847;DHT22;45728;48.788;2.302;2022-07-06T15:14:42;26.90;80.40
59847;DHT22;45728;48.788;2.302;2022-07-06T15:17:08;27.00;79.40
59847;DHT22;45728;48.788;2.302;2022-07-06T15:19:34;26.80;79.60
59847;DHT22;45728;48.788;2.302;2022-07-06T15:22:00;27.00;79.20
59847;DHT22;45728;48.788;2.302;2022-07-06T15:24:26;27.20;79.10
59847;DHT22;45728;48.788;2.302;2022-07-06T15:26:52;27.30;79.10
59847;DHT22;45728;48.788;2.302;2022-07-06T15:29:18;27.20;78.10
59847;DHT22;45728;48.788;2.302;2022-07-06T15:31:45;26.90;78.50
59847;DHT22;45728;48.788;2.302;2022-07-06T15:34:11;27.00;78.10
59847;DHT22;45728;48.788;2.302;2022-07-06T15:36:37;26.50;79.10
59847;DHT22;45728;48.788;2.302;2022-07-06T15:39:03;26.30;79.50
59847;DHT22;45728;48.788;2.302;2022-07-06T15:41:29;26.70;79.60
59847;DHT22;45728;48.788;2.302;2022-07-06T15:43:55;26.90;79.00
59847;DHT22;45728;48.788;2.302;2022-07-06T15:46:23;26.70;79.10